Terminal Aerodrome Forecast
Issued by NWS Omaha/Valley, NE

Home | Current Version | Previous Version | Text Only | Print | Product List | Glossary Off
Versions: 1 2 3 4 5 6 7 8 9 10 11 12 13 14 15 16 17 18 19 20 21 22 23 24 25 26 27 28 29 30 31 32 33 34 35 36 37 38 39 40 41

000
FTUS43 KOAX 310520
TAFOFK
TAF
KOFK 310520Z 3106/0106 21008KT P6SM OVC060 PROB30 3115/3119 -RA
      BKN025
     FM311900 15006KT P6SM -RA OVC015 PROB30 3120/3123 12008KT 5SM
      -SN OVC007
     FM312300 09008KT 3SM -SN OVC007
     FM010300 02013G22KT 1 1/2SM -SN OVC007=

USA.gov is the U.S. government's official web portal to all federal, state and local government web resources and services.